Time;durP1;ratioP1;P1;durP2;ratioP2;P2;SDS_P1;SDS_P2;PMS_P1;PMS_P2;Temp;Humidity;BMP_temperature;BMP_pressure;BME280_temperature;BME280_humidity;BME280_pressure;Samples;Min_cycle;Max_cycle;Signal;HPM_P1;HPM_P2
2022/01/18 00:01:57;;;;;;;22.40;4.25;;;3.70;99.90;;;;;;5086290;28;20036;-74
2022/01/18 00:04:24;;;;;;;23.77;4.20;;;3.60;99.90;;;;;;5076262;28;20031;-74
2022/01/18 00:06:53;;;;;;;10.32;3.83;;;3.60;99.90;;;;;;5075301;28;20036;-74
2022/01/18 00:09:22;;;;;;;9.75;3.75;;;3.60;99.90;;;;;;5077688;28;20028;-74
2022/01/18 00:11:57;;;;;;;14.55;4.30;;;3.60;99.90;;;;;;5075618;28;20097;-73
2022/01/18 00:14:41;;;;;;;33.10;4.60;;;3.60;99.90;;;;;;5083666;28;20135;-75
2022/01/18 00:17:39;;;;;;;14.25;4.13;;;3.50;99.90;;;;;;5074623;28;20072;-73
2022/01/18 00:20:05;;;;;;;13.07;4.03;;;3.50;99.90;;;;;;5074191;28;20035;-74
2022/01/18 00:22:31;;;;;;;13.20;3.95;;;3.50;99.90;;;;;;5073499;28;20024;-74
2022/01/18 00:24:59;;;;;;;8.15;3.20;;;3.40;99.90;;;;;;5074946;28;20036;-73
2022/01/18 00:27:28;;;;;;;5.85;3.10;;;3.40;99.90;;;;;;5074442;28;20037;-74
2022/01/18 00:30:13;;;;;;;11.13;3.42;;;3.40;99.90;;;;;;5073140;28;20141;-73
2022/01/18 00:33:13;;;;;;;19.42;3.33;;;3.40;99.90;;;;;;5074442;28;20070;-73
2022/01/18 00:35:32;;;;;;;22.35;3.70;;;3.40;99.90;;;;;;5073468;28;20074;-73
2022/01/18 00:37:59;;;;;;;13.65;2.65;;;3.40;99.90;;;;;;5074545;28;20036;-73
2022/01/18 00:40:24;;;;;;;10.18;2.70;;;3.40;99.90;;;;;;5074444;28;20028;-74
2022/01/18 00:42:50;;;;;;;12.45;2.60;;;3.30;99.90;;;;;;5074118;28;20060;-74
2022/01/18 00:45:16;;;;;;;5.10;2.78;;;3.30;99.90;;;;;;5073221;28;20509;-73
2022/01/18 00:47:42;;;;;;;13.35;2.72;;;3.20;99.90;;;;;;5074587;28;20373;-74
2022/01/18 00:50:09;;;;;;;9.02;3.17;;;3.20;99.90;;;;;;5073579;28;20028;-74
2022/01/18 00:52:40;;;;;;;4.35;2.38;;;3.20;99.90;;;;;;5074472;28;20035;-74
2022/01/18 00:55:05;;;;;;;17.38;3.67;;;3.10;99.90;;;;;;5073786;28;20024;-74
2022/01/18 00:57:31;;;;;;;6.68;2.90;;;3.10;99.90;;;;;;5073068;28;20036;-72
2022/01/18 00:59:56;;;;;;;5.20;2.55;;;3.00;99.90;;;;;;5073525;28;20474;-72
2022/01/18 01:02:22;;;;;;;17.02;3.13;;;3.00;99.90;;;;;;5074067;28;20029;-73
2022/01/18 01:04:49;;;;;;;7.88;2.92;;;3.00;99.90;;;;;;5073314;28;20127;-72
2022/01/18 01:07:19;;;;;;;11.68;2.80;;;3.00;99.90;;;;;;5073850;28;20028;-72
2022/01/18 01:09:45;;;;;;;7.45;2.67;;;3.00;99.90;;;;;;5074207;28;20037;-73
2022/01/18 01:12:12;;;;;;;7.57;3.22;;;2.90;99.90;;;;;;5072894;28;20029;-73
2022/01/18 01:14:39;;;;;;;11.00;3.50;;;3.00;99.90;;;;;;5073684;28;20044;-74
2022/01/18 01:33:59;;;;;;;6.40;3.97;;;2.80;99.90;;;;;;5072490;28;20071;-73
2022/01/18 01:36:36;;;;;;;9.73;3.60;;;2.90;99.90;;;;;;5073406;28;20035;-73
2022/01/18 01:44:37;;;;;;;12.85;4.38;;;2.70;99.90;;;;;;5073227;28;20033;-74
2022/01/18 01:47:04;;;;;;;5.75;3.85;;;2.70;99.90;;;;;;5072555;28;20025;-73
2022/01/18 01:49:29;;;;;;;11.25;4.55;;;2.70;99.90;;;;;;5073907;28;20056;-74
2022/01/18 01:51:55;;;;;;;22.08;4.00;;;2.70;99.90;;;;;;5073540;28;20052;-73
2022/01/18 01:54:20;;;;;;;6.40;3.33;;;2.70;99.90;;;;;;5072941;28;20028;-73
2022/01/18 01:56:46;;;;;;;15.95;3.17;;;2.70;99.90;;;;;;5073135;28;20032;-73
2022/01/18 01:59:12;;;;;;;28.95;3.90;;;2.80;99.90;;;;;;5079039;28;20047;-74
2022/01/18 02:01:41;;;;;;;5.45;2.63;;;2.80;99.90;;;;;;5074744;28;20033;-73
2022/01/18 02:04:06;;;;;;;8.57;3.20;;;2.90;99.90;;;;;;5072682;28;20390;-74
2022/01/18 02:06:32;;;;;;;18.90;3.95;;;2.90;99.90;;;;;;5072022;28;20068;-73
2022/01/18 02:08:57;;;;;;;9.93;3.38;;;2.90;99.90;;;;;;5076077;28;20021;-73
2022/01/18 02:11:26;;;;;;;7.35;3.00;;;2.90;99.90;;;;;;5074005;28;20143;-73
2022/01/18 02:13:56;;;;;;;22.90;3.15;;;3.00;99.90;;;;;;5079108;28;20029;-75
2022/01/18 02:21:51;;;;;;;7.10;3.05;;;2.80;99.90;;;;;;5072067;28;20077;-74
2022/01/18 02:24:21;;;;;;;6.25;3.00;;;2.80;99.90;;;;;;5072172;28;20070;-73
2022/01/18 02:26:47;;;;;;;7.43;3.10;;;2.80;99.90;;;;;;5072213;28;20048;-73
2022/01/18 02:29:14;;;;;;;7.07;3.20;;;2.70;99.90;;;;;;5073027;28;20086;-73
2022/01/18 02:31:40;;;;;;;7.25;3.10;;;2.70;99.90;;;;;;5072684;28;20028;-73
2022/01/18 02:34:16;;;;;;;13.85;3.40;;;2.70;99.90;;;;;;5072574;28;20025;-74
2022/01/18 02:36:45;;;;;;;4.78;3.05;;;2.70;99.90;;;;;;5071655;28;20043;-73
2022/01/18 02:39:12;;;;;;;4.25;3.42;;;3.50;99.90;;;;;;5072198;28;20091;-73
2022/01/18 02:41:39;;;;;;;9.77;3.50;;;2.70;99.90;;;;;;5070529;28;20024;-73
2022/01/18 02:44:11;;;;;;;10.80;3.60;;;2.70;99.90;;;;;;5071270;28;20036;-73
2022/01/18 02:46:38;;;;;;;16.38;3.13;;;2.70;99.90;;;;;;5072318;28;20491;-73
2022/01/18 02:49:05;;;;;;;11.38;3.08;;;2.70;99.90;;;;;;5071829;28;20383;-72
2022/01/18 02:51:31;;;;;;;16.20;3.08;;;2.70;99.90;;;;;;5072253;28;20039;-73
2022/01/18 02:54:05;;;;;;;17.23;2.97;;;2.80;99.90;;;;;;5072607;28;20112;-74
2022/01/18 02:56:35;;;;;;;15.10;2.80;;;2.80;99.90;;;;;;5071065;28;20051;-73
2022/01/18 03:04:39;;;;;;;15.55;2.88;;;2.80;99.90;;;;;;5092198;28;20034;-74
2022/01/18 03:07:05;;;;;;;2.97;2.67;;;2.80;99.90;;;;;;5092044;28;20503;-73
2022/01/18 03:09:31;;;;;;;7.43;2.22;;;2.80;99.90;;;;;;5092259;28;20029;-73
2022/01/18 03:11:56;;;;;;;4.80;2.53;;;2.80;99.90;;;;;;5091464;28;20357;-73
2022/01/18 03:14:22;;;;;;;17.90;2.30;;;2.80;99.90;;;;;;5091391;28;20498;-73
2022/01/18 03:16:48;;;;;;;4.25;2.78;;;2.80;99.90;;;;;;5091103;28;20519;-73
2022/01/18 03:19:13;;;;;;;2.88;2.67;;;2.70;99.90;;;;;;5091679;28;20085;-72
2022/01/18 03:21:40;;;;;;;3.53;3.22;;;2.70;99.90;;;;;;5092284;28;20044;-73
2022/01/18 03:24:20;;;;;;;10.43;2.70;;;2.70;99.90;;;;;;5095428;28;20028;-72
2022/01/18 03:29:30;;;;;;;2.97;2.78;;;2.70;99.90;;;;;;5098218;28;20035;-73
2022/01/18 03:31:56;;;;;;;4.18;2.60;;;2.70;99.90;;;;;;5098270;28;20383;-72
2022/01/18 03:34:22;;;;;;;4.40;2.40;;;2.50;99.90;;;;;;5097137;28;20500;-73
2022/01/18 03:36:48;;;;;;;10.63;2.58;;;2.60;99.90;;;;;;5099035;28;20111;-73
2022/01/18 03:39:13;;;;;;;19.15;2.38;;;2.60;99.90;;;;;;5097742;28;20032;-73
2022/01/18 03:41:39;;;;;;;2.65;2.45;;;2.50;99.90;;;;;;5098852;28;20024;-73
2022/01/18 03:44:05;;;;;;;2.80;2.60;;;2.60;99.90;;;;;;5098515;28;20511;-73
2022/01/18 03:46:36;;;;;;;5.68;2.50;;;2.50;99.90;;;;;;5098103;28;20150;-73
2022/01/18 03:49:03;;;;;;;4.80;2.85;;;2.50;99.90;;;;;;5098769;28;20490;-73
2022/01/18 03:51:29;;;;;;;14.93;2.65;;;2.50;99.90;;;;;;5099034;28;20028;-73
2022/01/18 03:53:54;;;;;;;7.50;2.72;;;2.50;99.90;;;;;;5097847;28;20502;-73
2022/01/18 03:56:20;;;;;;;5.25;2.60;;;2.50;99.90;;;;;;5098288;27;20038;-73
2022/01/18 03:58:46;;;;;;;2.85;2.55;;;2.50;99.90;;;;;;5107311;28;20039;-73
2022/01/18 04:01:11;;;;;;;3.10;2.80;;;2.40;99.90;;;;;;5100587;27;20034;-72
2022/01/18 04:03:37;;;;;;;3.00;2.80;;;2.40;99.90;;;;;;5098755;28;20098;-73
2022/01/18 04:06:02;;;;;;;6.88;3.40;;;2.40;99.90;;;;;;5097800;28;20101;-72
2022/01/18 04:08:28;;;;;;;5.32;2.95;;;2.50;99.90;;;;;;5102098;28;20494;-73
2022/01/18 04:10:53;;;;;;;9.93;3.08;;;2.40;99.90;;;;;;5107468;28;20055;-72
2022/01/18 04:13:20;;;;;;;3.33;2.72;;;2.50;99.90;;;;;;5100625;28;20131;-75
2022/01/18 04:15:46;;;;;;;4.68;2.63;;;2.50;99.90;;;;;;5098662;28;20052;-74
2022/01/18 04:26:55;;;;;;;7.30;2.63;;;2.50;99.90;;;;;;5098071;28;20495;-74
2022/01/18 04:28:54;;;;;;;2.70;2.45;;;2.40;99.90;;;;;;5096577;28;20020;-74
2022/01/18 04:31:21;;;;;;;3.15;2.78;;;2.40;99.90;;;;;;5098107;28;20387;-74
2022/01/18 04:33:47;;;;;;;2.65;2.45;;;2.50;99.90;;;;;;5098110;28;20031;-73
2022/01/18 04:36:13;;;;;;;4.53;2.50;;;2.50;99.90;;;;;;5093006;28;20032;-73
2022/01/18 04:38:39;;;;;;;4.00;3.28;;;2.40;99.90;;;;;;5094932;28;20060;-73
2022/01/18 04:41:07;;;;;;;2.83;2.63;;;2.50;99.90;;;;;;5094830;28;20055;-75
2022/01/18 04:48:51;;;;;;;4.38;3.83;;;2.50;99.90;;;;;;5094205;28;20073;-74
2022/01/18 04:51:16;;;;;;;8.55;3.40;;;2.50;99.90;;;;;;5094684;28;20023;-74
2022/01/18 04:53:49;;;;;;;3.88;3.47;;;2.50;99.90;;;;;;5095133;28;20036;-74
2022/01/18 04:56:18;;;;;;;11.15;3.45;;;2.40;99.90;;;;;;5096678;28;20028;-75
2022/01/18 04:58:44;;;;;;;4.38;3.90;;;2.40;99.90;;;;;;5094737;28;20365;-74
2022/01/18 05:01:11;;;;;;;7.60;3.70;;;2.40;99.90;;;;;;5094769;28;20028;-74
2022/01/18 05:03:37;;;;;;;5.45;3.38;;;2.40;99.90;;;;;;5094236;28;20028;-74
2022/01/18 05:06:09;;;;;;;7.70;4.07;;;2.40;99.90;;;;;;5095434;28;20044;-74
2022/01/18 05:08:38;;;;;;;5.13;3.78;;;2.40;99.90;;;;;;5096232;28;20098;-74
2022/01/18 05:11:06;;;;;;;7.55;4.18;;;2.40;99.90;;;;;;5094269;28;20425;-74
2022/01/18 05:19:09;;;;;;;6.80;3.80;;;2.50;99.90;;;;;;5094194;28;20036;-74
2022/01/18 05:24:29;;;;;;;13.82;4.15;;;2.50;99.90;;;;;;5094618;28;20365;-74
2022/01/18 05:26:56;;;;;;;4.20;3.80;;;2.50;99.90;;;;;;5096932;28;20036;-75
2022/01/18 05:29:22;;;;;;;6.28;4.90;;;2.50;99.90;;;;;;5095285;28;20024;-74
2022/01/18 05:31:48;;;;;;;9.10;4.47;;;2.50;99.90;;;;;;5093673;28;20462;-75
2022/01/18 05:34:14;;;;;;;7.40;3.95;;;2.50;99.90;;;;;;5093943;28;20051;-74
2022/01/18 05:36:40;;;;;;;7.05;4.80;;;2.60;99.90;;;;;;5094449;28;20024;-74
2022/01/18 05:39:09;;;;;;;13.63;4.70;;;2.60;99.90;;;;;;5093542;28;20039;-74
2022/01/18 05:41:38;;;;;;;23.02;5.20;;;2.60;99.90;;;;;;5094546;28;20077;-74
2022/01/18 05:44:05;;;;;;;15.98;4.20;;;2.60;99.90;;;;;;5094220;28;20028;-72
2022/01/18 05:46:31;;;;;;;21.17;5.10;;;2.60;99.90;;;;;;5093048;28;20024;-74
2022/01/18 05:49:00;;;;;;;14.05;4.70;;;2.60;99.90;;;;;;5094214;28;20047;-74
2022/01/18 05:51:29;;;;;;;12.50;4.60;;;2.70;99.90;;;;;;5093514;28;20038;-74
2022/01/18 05:53:54;;;;;;;6.45;4.90;;;2.70;99.90;;;;;;5093501;28;20020;-74
2022/01/18 05:56:20;;;;;;;5.82;4.68;;;2.70;99.90;;;;;;5093558;28;20072;-74
2022/01/18 05:58:48;;;;;;;35.92;5.20;;;2.70;99.90;;;;;;5102287;27;20055;-74
2022/01/18 06:01:21;;;;;;;6.70;4.10;;;2.80;99.90;;;;;;5098074;28;20032;-74
2022/01/18 06:09:09;;;;;;;7.35;3.83;;;2.80;99.90;;;;;;5097219;28;20145;-75
2022/01/18 06:11:34;;;;;;;4.10;3.70;;;2.80;99.90;;;;;;5093762;28;20478;-75
2022/01/18 06:14:00;;;;;;;12.10;3.33;;;2.80;99.90;;;;;;5100682;28;20023;-75
2022/01/18 06:16:26;;;;;;;7.22;3.55;;;2.80;99.90;;;;;;5093625;28;20081;-74
2022/01/18 06:18:53;;;;;;;3.88;3.33;;;2.80;99.90;;;;;;5093022;28;20111;-74
2022/01/18 06:21:22;;;;;;;4.78;3.67;;;2.80;99.90;;;;;;5092647;28;20024;-75
2022/01/18 06:23:48;;;;;;;3.80;3.33;;;2.80;99.90;;;;;;5092575;28;20032;-75
2022/01/18 06:26:15;;;;;;;10.38;3.40;;;2.90;99.90;;;;;;5092486;28;20016;-75
2022/01/18 06:28:44;;;;;;;3.35;2.63;;;2.90;99.90;;;;;;5092206;28;20126;-75
2022/01/18 06:31:10;;;;;;;8.48;2.97;;;2.90;99.90;;;;;;5092404;28;20028;-75
2022/01/18 06:33:36;;;;;;;4.00;2.92;;;3.00;99.90;;;;;;5093009;28;20047;-75
2022/01/18 06:36:02;;;;;;;8.13;2.85;;;3.00;99.90;;;;;;5092324;28;20066;-75
2022/01/18 06:38:28;;;;;;;3.08;2.70;;;3.00;99.90;;;;;;5092391;28;20708;-73
2022/01/18 06:40:53;;;;;;;8.68;3.40;;;3.00;99.90;;;;;;5092116;28;20077;-74
2022/01/18 06:43:19;;;;;;;4.95;2.67;;;3.00;99.90;;;;;;5091427;28;20032;-75
2022/01/18 06:45:45;;;;;;;3.05;2.70;;;3.00;99.90;;;;;;5071931;28;20055;-75
2022/01/18 06:48:10;;;;;;;7.10;2.72;;;3.00;99.90;;;;;;5081967;28;20460;-74
2022/01/18 06:50:36;;;;;;;3.13;2.63;;;3.10;99.90;;;;;;5071321;28;20035;-72
2022/01/18 06:53:02;;;;;;;4.80;2.95;;;3.00;99.90;;;;;;5073970;28;20476;-74
2022/01/18 06:55:28;;;;;;;6.25;2.85;;;3.10;99.90;;;;;;5073267;28;20017;-74
2022/01/18 06:57:54;;;;;;;6.93;2.70;;;3.10;99.90;;;;;;5073653;28;20357;-76
2022/01/18 07:00:20;;;;;;;8.02;3.40;;;3.10;99.90;;;;;;5071138;28;20031;-74
2022/01/18 07:02:45;;;;;;;9.88;3.15;;;3.10;99.90;;;;;;5071260;28;20415;-74
2022/01/18 07:05:32;;;;;;;7.65;3.08;;;3.10;99.90;;;;;;5071033;28;20052;-76
2022/01/18 07:07:57;;;;;;;5.35;3.13;;;3.10;99.90;;;;;;5074255;28;20490;-76
2022/01/18 07:10:25;;;;;;;8.85;2.70;;;3.10;99.90;;;;;;5070730;28;20111;-76
2022/01/18 07:12:50;;;;;;;4.10;3.28;;;3.20;99.90;;;;;;5071676;28;20129;-75
2022/01/18 07:15:16;;;;;;;7.40;3.45;;;3.20;99.90;;;;;;5076695;28;20508;-75
2022/01/18 07:17:41;;;;;;;3.75;2.67;;;3.20;99.90;;;;;;5070505;28;20417;-74
2022/01/18 07:20:08;;;;;;;9.05;2.85;;;3.20;99.90;;;;;;5076648;28;20016;-75
2022/01/18 07:22:34;;;;;;;10.85;3.10;;;3.20;99.90;;;;;;5082057;28;20024;-75
2022/01/18 07:25:01;;;;;;;4.25;2.70;;;3.30;99.90;;;;;;5090897;28;20050;-74
2022/01/18 07:27:27;;;;;;;10.63;2.85;;;3.20;99.90;;;;;;5088255;28;20016;-74
2022/01/18 07:29:53;;;;;;;6.93;3.08;;;3.30;99.90;;;;;;5082439;28;20537;-74
2022/01/18 07:32:18;;;;;;;4.10;3.40;;;3.30;99.90;;;;;;5084783;28;20057;-73
2022/01/18 07:34:55;;;;;;;7.57;3.30;;;3.30;99.90;;;;;;5091574;28;20074;-74
2022/01/18 07:37:21;;;;;;;4.32;3.58;;;3.30;99.90;;;;;;5089045;28;20123;-74
2022/01/18 07:39:49;;;;;;;10.15;3.83;;;3.40;99.90;;;;;;5072320;28;20108;-74
2022/01/18 07:42:15;;;;;;;12.55;3.47;;;3.40;99.90;;;;;;5071327;28;20145;-74
2022/01/18 07:44:41;;;;;;;5.25;3.15;;;3.40;99.90;;;;;;5089018;28;20024;-74
2022/01/18 07:47:07;;;;;;;7.18;3.70;;;3.40;99.90;;;;;;5089148;28;20383;-73
2022/01/18 07:49:32;;;;;;;5.90;2.85;;;3.40;99.90;;;;;;5090262;28;20509;-74
2022/01/18 07:51:58;;;;;;;5.95;2.78;;;3.40;99.90;;;;;;5091385;28;20024;-74
2022/01/18 07:54:23;;;;;;;3.60;2.63;;;3.40;99.90;;;;;;5086823;28;20020;-74
2022/01/18 07:56:49;;;;;;;3.53;2.92;;;3.40;99.90;;;;;;5090493;28;20375;-74
2022/01/18 07:59:14;;;;;;;8.48;2.97;;;3.40;99.90;;;;;;5084670;28;20024;-74
2022/01/18 08:01:42;;;;;;;11.07;3.33;;;3.50;99.90;;;;;;5072907;28;20024;-74
2022/01/18 08:04:08;;;;;;;7.60;3.45;;;3.50;99.90;;;;;;5081742;28;20047;-74
2022/01/18 08:06:33;;;;;;;4.93;3.72;;;3.50;99.90;;;;;;5087566;28;20432;-74
2022/01/18 08:08:59;;;;;;;5.03;3.05;;;3.50;99.90;;;;;;5085597;28;20056;-74
2022/01/18 08:11:25;;;;;;;7.15;3.55;;;3.60;99.90;;;;;;5090578;28;20033;-74
2022/01/18 08:13:50;;;;;;;4.43;3.45;;;3.60;99.90;;;;;;5084050;28;20028;-74
2022/01/18 08:16:46;;;;;;;5.20;3.50;;;3.60;99.90;;;;;;5075409;28;20077;-73
2022/01/18 08:19:12;;;;;;;8.60;4.35;;;3.70;99.90;;;;;;5080640;28;20085;-74
2022/01/18 08:21:38;;;;;;;8.43;3.55;;;3.80;99.90;;;;;;5093384;28;20024;-74
2022/01/18 08:24:03;;;;;;;7.93;4.10;;;3.80;99.90;;;;;;5094938;28;20429;-74
2022/01/18 08:26:29;;;;;;;7.40;3.60;;;3.80;99.90;;;;;;5094802;28;20032;-74
2022/01/18 08:28:54;;;;;;;6.00;3.90;;;3.90;99.90;;;;;;5095730;28;20111;-74
2022/01/18 08:31:20;;;;;;;8.57;3.85;;;3.90;99.90;;;;;;5094763;28;20165;-75
2022/01/18 08:33:46;;;;;;;6.57;4.00;;;4.00;99.90;;;;;;5093933;28;20032;-74
2022/01/18 08:36:11;;;;;;;5.70;3.53;;;4.00;99.90;;;;;;5094982;28;20035;-74
2022/01/18 08:38:39;;;;;;;17.40;3.78;;;4.10;99.90;;;;;;5094875;28;20404;-75
2022/01/18 08:41:05;;;;;;;8.52;3.40;;;4.10;99.90;;;;;;5093574;28;20066;-74
2022/01/18 08:43:31;;;;;;;4.95;3.22;;;4.20;99.90;;;;;;5084798;28;20025;-74
2022/01/18 08:45:58;;;;;;;7.82;3.92;;;4.30;99.90;;;;;;5074294;28;20035;-73
2022/01/18 08:48:24;;;;;;;7.00;3.20;;;4.30;99.90;;;;;;5073672;28;20468;-74
2022/01/18 08:50:49;;;;;;;8.40;3.15;;;4.40;99.90;;;;;;5074123;28;20036;-74
2022/01/18 08:53:15;;;;;;;6.40;2.90;;;4.40;99.90;;;;;;5084716;28;20050;-75
2022/01/18 08:55:41;;;;;;;5.15;2.80;;;4.50;99.90;;;;;;5094049;28;20455;-75
2022/01/18 08:58:08;;;;;;;3.35;2.55;;;4.50;99.90;;;;;;5094521;28;20160;-74
2022/01/18 09:00:33;;;;;;;3.42;1.95;;;4.60;99.90;;;;;;5094405;28;20039;-72
2022/01/18 09:02:59;;;;;;;2.78;1.83;;;4.70;99.90;;;;;;5094128;28;20020;-73
2022/01/18 09:05:25;;;;;;;1.70;1.52;;;4.80;99.90;;;;;;5093989;28;20522;-75
2022/01/18 09:07:52;;;;;;;8.55;1.60;;;4.90;99.90;;;;;;5080069;28;20469;-74
2022/01/18 09:10:25;;;;;;;4.85;2.10;;;4.90;99.90;;;;;;5072530;28;20024;-73
2022/01/18 09:12:51;;;;;;;3.63;2.05;;;4.90;99.90;;;;;;5073858;28;20024;-73
2022/01/18 09:15:17;;;;;;;4.85;2.45;;;5.00;99.90;;;;;;5073730;28;20031;-74
2022/01/18 09:17:42;;;;;;;5.25;2.80;;;5.10;99.90;;;;;;5072740;28;20033;-72
2022/01/18 09:20:11;;;;;;;4.38;2.72;;;5.10;99.90;;;;;;5073617;28;20017;-72
2022/01/18 09:22:38;;;;;;;3.22;2.03;;;5.20;99.90;;;;;;5072399;28;20034;-74
2022/01/18 09:25:07;;;;;;;5.00;2.60;;;5.20;99.90;;;;;;5073462;28;20024;-75
2022/01/18 09:27:33;;;;;;;3.00;2.30;;;5.20;99.90;;;;;;5073416;28;20115;-77
2022/01/18 09:29:59;;;;;;;5.00;2.80;;;5.30;99.90;;;;;;5073089;28;20120;-74
2022/01/18 09:32:25;;;;;;;7.97;2.92;;;5.30;99.90;;;;;;5072987;28;20049;-72
2022/01/18 09:34:52;;;;;;;5.15;2.75;;;5.30;99.90;;;;;;5073548;28;20059;-74
2022/01/18 09:37:17;;;;;;;4.38;3.10;;;5.40;99.90;;;;;;5072221;28;20040;-74
2022/01/18 09:39:43;;;;;;;3.83;2.80;;;5.40;99.90;;;;;;5073662;28;20127;-72
2022/01/18 09:42:11;;;;;;;3.70;3.03;;;5.40;99.90;;;;;;5075977;28;20387;-74
2022/01/18 09:44:37;;;;;;;3.92;3.50;;;5.40;99.90;;;;;;5091771;28;20020;-73
2022/01/18 09:47:04;;;;;;;7.63;4.00;;;5.50;99.90;;;;;;5092596;28;20024;-74
2022/01/18 09:49:31;;;;;;;5.72;4.28;;;5.50;99.90;;;;;;5092448;28;20538;-74
2022/01/18 09:51:57;;;;;;;8.48;4.95;;;5.50;99.90;;;;;;5092243;28;20035;-73
2022/01/18 09:54:23;;;;;;;12.38;5.65;;;5.50;99.90;;;;;;5087683;28;20029;-69
2022/01/18 09:56:48;;;;;;;12.52;7.03;;;5.60;99.90;;;;;;5072234;28;20028;-73
2022/01/18 09:59:14;;;;;;;14.20;6.50;;;5.60;99.90;;;;;;5072403;28;20082;-73
2022/01/18 10:01:40;;;;;;;19.27;7.65;;;5.70;99.90;;;;;;5073148;28;20103;-73
2022/01/18 10:04:30;;;;;;;15.43;6.90;;;5.80;99.90;;;;;;5091057;28;20392;-73
2022/01/18 10:06:56;;;;;;;;;;;5.80;99.90;;;;;;5092899;28;20055;-72
2022/01/18 10:09:23;;;;;;;19.73;6.97;;;5.90;99.90;;;;;;5093087;28;20610;-73
2022/01/18 10:12:12;;;;;;;28.23;9.68;;;5.90;99.90;;;;;;5092253;28;20040;-75
2022/01/18 10:14:41;;;;;;;25.95;10.15;;;5.90;99.90;;;;;;5092827;28;20035;-74
2022/01/18 10:17:10;;;;;;;27.55;10.07;;;6.00;99.90;;;;;;5080641;28;20059;-74
2022/01/18 10:19:48;;;;;;;22.67;9.70;;;6.00;99.90;;;;;;5072439;28;20024;-76
2022/01/18 10:22:17;;;;;;;23.67;10.20;;;6.10;99.90;;;;;;5073267;28;20103;-76
2022/01/18 10:24:44;;;;;;;22.52;10.57;;;6.10;99.90;;;;;;5073768;28;20020;-78
2022/01/18 10:27:13;;;;;;;28.70;11.00;;;6.20;99.90;;;;;;5073717;28;20041;-76
2022/01/18 10:29:46;;;;;;;29.05;10.98;;;6.20;99.90;;;;;;5075617;28;20028;-77
2022/01/18 10:37:19;;;;;;;34.00;11.57;;;6.10;99.90;;;;;;5072995;28;20372;-72
2022/01/18 10:39:50;;;;;;;31.30;11.23;;;6.10;99.90;;;;;;5079692;28;20432;-77
2022/01/18 10:42:36;;;;;;;27.48;10.57;;;6.20;99.90;;;;;;5092018;28;20491;-74
2022/01/18 10:45:11;;;;;;;37.35;12.38;;;6.30;99.90;;;;;;5076877;28;20025;-73
2022/01/18 10:47:38;;;;;;;34.38;11.68;;;6.30;99.90;;;;;;5089439;28;20094;-73
2022/01/18 10:50:13;;;;;;;35.20;11.90;;;6.30;99.90;;;;;;5092085;28;20387;-73
2022/01/18 10:52:42;;;;;;;40.85;11.70;;;6.40;99.90;;;;;;5075582;28;20024;-73
2022/01/18 10:55:16;;;;;;;42.65;12.30;;;6.30;99.90;;;;;;5085977;28;20472;-74
2022/01/18 10:57:42;;;;;;;40.47;11.88;;;6.40;99.90;;;;;;5092083;28;20040;-73
2022/01/18 11:00:25;;;;;;;42.20;12.75;;;6.40;99.90;;;;;;5092245;28;20012;-74
2022/01/18 11:02:53;;;;;;;44.25;13.77;;;6.40;99.90;;;;;;5091714;28;20517;-74
2022/01/18 11:05:20;;;;;;;46.38;14.93;;;6.50;99.90;;;;;;5091489;28;20058;-73
2022/01/18 11:07:47;;;;;;;53.60;14.95;;;6.50;99.90;;;;;;5092394;28;20069;-74
2022/01/18 11:10:15;;;;;;;40.40;15.45;;;6.50;99.90;;;;;;5091978;28;20028;-75
2022/01/18 11:13:15;;;;;;;44.97;13.38;;;6.50;99.90;;;;;;5093136;28;20020;-74
2022/01/18 11:15:45;;;;;;;;;;;6.50;99.90;;;;;;5092113;28;20365;-73
2022/01/18 11:18:17;;;;;;;42.83;12.38;;;6.50;99.90;;;;;;5089615;28;19961;-74
2022/01/18 11:20:45;;;;;;;47.60;13.25;;;6.50;99.90;;;;;;5090791;28;20021;-73
2022/01/18 11:23:12;;;;;;;53.22;13.57;;;6.60;99.90;;;;;;5071353;28;20174;-73
2022/01/18 11:25:41;;;;;;;49.28;13.35;;;6.60;99.90;;;;;;5082168;28;20028;-73
2022/01/18 11:28:10;;;;;;;58.88;14.75;;;6.60;99.90;;;;;;5071539;28;20031;-73
2022/01/18 11:30:44;;;;;;;56.97;15.55;;;6.60;99.90;;;;;;5071433;28;20060;-73
2022/01/18 11:33:12;;;;;;;52.28;13.55;;;6.60;99.90;;;;;;5071770;28;20040;-73
2022/01/18 11:35:58;;;;;;;46.40;12.73;;;6.70;99.90;;;;;;5071788;28;20028;-73
2022/01/18 11:38:40;;;;;;;48.20;14.15;;;6.60;99.90;;;;;;5070786;28;20047;-73
2022/01/18 11:41:06;;;;;;;55.75;15.10;;;6.60;99.90;;;;;;5071689;28;20025;-73
2022/01/18 11:43:42;;;;;;;52.47;13.38;;;6.70;99.90;;;;;;5070980;28;20391;-73
2022/01/18 11:46:24;;;;;;;36.80;12.52;;;6.70;99.90;;;;;;5074970;28;20376;-73
2022/01/18 11:49:06;;;;;;;35.13;10.95;;;6.70;99.90;;;;;;5075728;28;20074;-73
2022/01/18 11:51:40;;;;;;;43.58;11.82;;;6.70;99.90;;;;;;5079446;28;20555;-73
2022/01/18 11:54:56;;;;;;;49.05;14.65;;;6.80;99.90;;;;;;5093887;28;20040;-74
2022/01/18 11:57:22;;;;;;;29.48;10.32;;;6.80;99.90;;;;;;5082845;28;20060;-73
2022/01/18 11:59:49;;;;;;;34.63;11.55;;;6.80;99.90;;;;;;5075581;28;20141;-73
2022/01/18 12:02:41;;;;;;;28.15;10.50;;;6.80;99.90;;;;;;5079397;28;20071;-73
2022/01/18 12:05:28;;;;;;;35.22;12.10;;;6.80;99.90;;;;;;5073763;28;20538;-73
2022/01/18 12:07:59;;;;;;;36.08;10.90;;;6.80;99.90;;;;;;5075587;28;20039;-73
2022/01/18 12:10:27;;;;;;;30.45;12.77;;;6.90;99.90;;;;;;5076148;28;20477;-73
2022/01/18 12:12:54;;;;;;;39.83;12.55;;;6.80;99.90;;;;;;5079757;28;20027;-73
2022/01/18 12:15:23;;;;;;;28.00;12.70;;;6.90;99.90;;;;;;5074495;28;20017;-74
2022/01/18 12:17:51;;;;;;;39.70;12.82;;;6.90;99.90;;;;;;5077569;28;20032;-73
2022/01/18 12:20:35;;;;;;;35.38;13.45;;;6.90;99.90;;;;;;5074153;28;20107;-73
2022/01/18 12:23:04;;;;;;;42.22;12.35;;;6.90;99.90;;;;;;5075286;28;20021;-73
2022/01/18 12:25:33;;;;;;;50.60;13.80;;;6.90;99.90;;;;;;5074501;28;20039;-73
2022/01/18 12:28:20;;;;;;;44.35;14.77;;;7.00;99.90;;;;;;5075072;28;20024;-73
2022/01/18 12:31:04;;;;;;;42.95;14.48;;;7.00;99.90;;;;;;5074740;28;20051;-73
2022/01/18 12:33:43;;;;;;;40.78;13.88;;;6.90;99.90;;;;;;5074052;28;20469;-73
2022/01/18 12:36:28;;;;;;;44.05;13.18;;;7.00;99.90;;;;;;5074774;28;20036;-73
2022/01/18 12:39:02;;;;;;;37.00;13.80;;;7.00;99.90;;;;;;5074625;28;20400;-74
2022/01/18 12:41:42;;;;;;;31.27;12.35;;;7.10;99.90;;;;;;5074127;28;20024;-73
2022/01/18 12:44:24;;;;;;;43.80;13.07;;;7.10;99.90;;;;;;5074815;28;20039;-73
2022/01/18 12:47:15;;;;;;;44.90;12.98;;;7.10;99.90;;;;;;5074387;28;20560;-74
2022/01/18 12:49:42;;;;;;;45.60;13.82;;;7.10;99.90;;;;;;5072989;28;20059;-74
2022/01/18 12:52:08;;;;;;;40.72;13.85;;;7.10;99.90;;;;;;5074786;28;20403;-73
2022/01/18 12:54:39;;;;;;;35.55;13.88;;;7.10;99.90;;;;;;5074347;28;20028;-73
2022/01/18 12:57:20;;;;;;;38.88;14.10;;;7.20;99.90;;;;;;5074960;28;20147;-73
2022/01/18 13:00:06;;;;;;;37.38;13.15;;;7.30;99.90;;;;;;5074700;28;20025;-74
2022/01/18 13:02:32;;;;;;;45.22;14.98;;;7.20;99.90;;;;;;5074323;28;20024;-73
2022/01/18 13:05:06;;;;;;;42.28;14.25;;;7.30;99.90;;;;;;5074855;28;20040;-72
2022/01/18 13:07:32;;;;;;;39.17;12.18;;;7.30;99.90;;;;;;5074307;28;20086;-73
2022/01/18 13:10:08;;;;;;;46.28;14.75;;;7.30;99.90;;;;;;5075882;28;20104;-72
2022/01/18 13:12:41;;;;;;;34.47;12.00;;;7.30;99.90;;;;;;5074946;28;20039;-72
2022/01/18 13:15:08;;;;;;;46.10;16.08;;;7.30;99.90;;;;;;5073694;28;20480;-73
2022/01/18 13:24:07;;;;;;;41.38;14.40;;;7.50;99.90;;;;;;5019087;28;20056;-72
2022/01/18 13:26:39;;;;;;;46.72;13.27;;;7.50;99.90;;;;;;5091081;28;20025;-72
2022/01/18 13:29:21;;;;;;;34.47;13.02;;;7.50;99.90;;;;;;5090743;28;20028;-73
2022/01/18 13:32:21;;;;;;;37.20;12.77;;;7.50;99.90;;;;;;5093049;28;20043;-73
2022/01/18 13:34:57;;;;;;;47.23;13.73;;;7.50;99.90;;;;;;5093486;28;20107;-73
2022/01/18 13:37:30;;;;;;;42.97;13.27;;;7.50;99.90;;;;;;5092695;28;20662;-73
2022/01/18 13:40:00;;;;;;;41.10;12.07;;;7.60;99.90;;;;;;5094459;28;20028;-73
2022/01/18 13:42:33;;;;;;;43.83;12.25;;;7.60;99.90;;;;;;5092915;28;20020;-73
2022/01/18 13:45:19;;;;;;;33.20;11.65;;;7.60;99.90;;;;;;5091738;28;20100;-73
2022/01/18 13:47:58;;;;;;;39.88;12.63;;;7.50;99.90;;;;;;5088572;28;20492;-73
2022/01/18 13:50:34;;;;;;;37.30;12.80;;;7.60;99.90;;;;;;5088409;28;20036;-72
2022/01/18 13:53:00;;;;;;;34.95;12.05;;;7.70;99.90;;;;;;5091816;28;20477;-73
2022/01/18 13:55:28;;;;;;;43.78;14.02;;;7.60;99.90;;;;;;5091486;28;20117;-72
2022/01/18 13:57:58;;;;;;;39.30;12.93;;;7.70;99.90;;;;;;5090424;28;20056;-72
2022/01/18 14:00:25;;;;;;;34.85;13.90;;;7.70;99.90;;;;;;5086427;28;20460;-72
2022/01/18 14:02:51;;;;;;;48.28;13.57;;;7.70;99.90;;;;;;5083146;28;20034;-72
2022/01/18 14:05:20;;;;;;;50.92;14.93;;;7.70;99.90;;;;;;5091243;28;20123;-74
2022/01/18 14:07:46;;;;;;;51.10;15.70;;;7.70;99.90;;;;;;5091284;28;20479;-75
2022/01/18 14:10:12;;;;;;;36.13;12.95;;;7.60;99.90;;;;;;5084001;28;20043;-72
2022/01/18 14:12:37;;;;;;;57.67;19.63;;;7.60;99.90;;;;;;5080758;28;20078;-74
2022/01/18 14:15:03;;;;;;;53.88;16.98;;;7.60;99.90;;;;;;5086919;28;20024;-72
2022/01/18 14:17:29;;;;;;;41.00;14.48;;;7.50;99.90;;;;;;5088455;28;20070;-71